Time;durP1;ratioP1;P1;durP2;ratioP2;P2;SDS_P1;SDS_P2;PMS_P1;PMS_P2;Temp;Humidity;BMP_temperature;BMP_pressure;BME280_temperature;BME280_humidity;BME280_pressure;Samples;Min_cycle;Max_cycle;Signal;HPM_P1;HPM_P2
2022/06/07 00:01:19;;;;;;;9.25;5.63;;;;;;;18.03;79.35;100627.09;4931458;28;20899;-76
2022/06/07 00:03:45;;;;;;;8.02;5.15;;;;;;;17.93;80.62;100631.78;4949022;28;20043;-76
2022/06/07 00:06:10;;;;;;;11.77;4.10;;;;;;;17.84;81.01;100623.19;4947226;28;20038;-76
2022/06/07 00:08:36;;;;;;;9.75;4.00;;;;;;;17.84;81.25;100632.03;4947290;28;20046;-76
2022/06/07 00:11:02;;;;;;;8.68;5.30;;;;;;;17.82;81.54;100617.06;4931160;28;20035;-76
2022/06/07 00:13:27;;;;;;;5.97;4.18;;;;;;;17.75;81.83;100612.78;4948234;28;20147;-77
2022/06/07 00:15:53;;;;;;;11.90;5.18;;;;;;;17.64;82.75;100619.25;4945412;28;20062;-77
2022/06/07 00:18:19;;;;;;;10.85;5.57;;;;;;;17.77;82.51;100632.19;4948442;28;20023;-77
2022/06/07 00:20:44;;;;;;;9.05;4.82;;;;;;;17.70;82.89;100627.06;4951330;28;20039;-77
2022/06/07 00:23:14;;;;;;;10.00;4.43;;;;;;;17.61;82.97;100621.97;4945690;28;20558;-76
2022/06/07 00:25:41;;;;;;;9.52;5.15;;;;;;;17.58;83.51;100618.53;4946394;28;20046;-77
2022/06/07 00:28:07;;;;;;;8.30;4.45;;;;;;;17.48;83.83;100618.75;4945836;28;20046;-76
2022/06/07 00:30:34;;;;;;;12.85;4.63;;;;;;;17.49;83.83;100619.66;4948354;28;20039;-76
2022/06/07 00:33:00;;;;;;;7.30;4.68;;;;;;;17.48;83.96;100605.50;4945156;28;20106;-78
2022/06/07 00:35:26;;;;;;;7.72;4.82;;;;;;;17.12;83.99;100554.25;4945906;28;20031;-75
2022/06/07 00:37:51;;;;;;;12.05;5.20;;;;;;;17.23;84.02;100584.03;4945028;28;20134;-76
2022/06/07 00:40:18;;;;;;;6.85;5.50;;;;;;;17.49;83.86;100617.00;4930029;28;20074;-75
2022/06/07 00:42:43;;;;;;;9.60;5.25;;;;;;;17.41;84.24;100618.97;4947723;28;20046;-75
2022/06/07 00:45:21;;;;;;;5.63;3.90;;;;;;;17.47;85.00;100611.72;4943294;28;20043;-75
2022/06/07 00:47:53;;;;;;;8.10;6.25;;;;;;;17.43;84.27;100604.75;4943488;28;20035;-75
2022/06/07 00:50:54;;;;;;;7.38;4.70;;;;;;;17.48;83.94;100605.50;4932195;28;20038;-76
2022/06/07 00:53:23;;;;;;;8.85;5.63;;;;;;;17.19;83.24;100547.88;4948272;28;20039;-75
2022/06/07 00:55:51;;;;;;;8.70;5.10;;;;;;;17.27;83.56;100558.28;4946386;28;20034;-76
2022/06/07 00:58:18;;;;;;;6.70;4.85;;;;;;;16.99;83.95;100540.41;4942911;28;20513;-75
2022/06/07 01:00:43;;;;;;;8.52;5.72;;;;;;;16.95;84.89;100524.63;4946904;28;20027;-76
2022/06/07 01:03:09;;;;;;;8.90;6.68;;;;;;;17.39;84.68;100595.09;4945273;28;20066;-76
2022/06/07 01:05:34;;;;;;;13.77;7.20;;;;;;;17.44;85.11;100585.28;4943061;28;20035;-76
2022/06/07 01:10:47;;;;;;;8.70;5.53;;;;;;;17.44;82.50;100585.28;4947176;28;20116;-76
2022/06/07 01:13:16;;;;;;;9.98;6.95;;;;;;;17.41;82.32;100556.16;4946765;28;20042;-76
2022/06/07 01:15:44;;;;;;;9.77;5.78;;;;;;;17.63;82.80;100595.38;4948536;28;20046;-76
2022/06/07 01:18:10;;;;;;;7.88;5.78;;;;;;;17.07;84.07;100543.75;4949544;28;20065;-75
2022/06/07 01:20:35;;;;;;;12.55;5.47;;;;;;;17.25;81.27;100533.59;4935879;28;20039;-76
2022/06/07 01:23:01;;;;;;;10.60;5.55;;;;;;;17.69;80.35;100604.06;4948269;28;20025;-76
2022/06/07 01:25:26;;;;;;;7.75;6.50;;;;;;;17.67;78.23;100560.75;4947683;28;20043;-76
2022/06/07 01:27:52;;;;;;;8.23;5.18;;;;;;;17.91;78.89;100609.72;4951367;28;20041;-76
2022/06/07 01:30:18;;;;;;;9.52;7.30;;;;;;;17.78;78.68;100599.44;4949123;28;20038;-76
2022/06/07 01:32:43;;;;;;;8.55;6.38;;;;;;;17.77;78.35;100589.72;4948755;28;20138;-76
2022/06/07 01:35:09;;;;;;;7.95;5.63;;;;;;;17.36;78.69;100533.31;4946419;28;20047;-77
2022/06/07 01:37:35;;;;;;;9.15;5.38;;;;;;;17.79;78.50;100587.91;4949289;28;20043;-78
2022/06/07 01:42:45;;;;;;;11.90;8.05;;;;;;;17.80;79.92;100593.19;4949503;28;20050;-77
2022/06/07 01:45:11;;;;;;;10.88;5.63;;;;;;;17.23;81.18;100524.78;4933963;28;20031;-77
2022/06/07 01:47:37;;;;;;;10.18;6.35;;;;;;;17.66;81.38;100596.19;4938081;28;20179;-76
2022/06/07 01:50:05;;;;;;;9.18;6.72;;;;;;;17.20;81.70;100515.13;4947155;28;20028;-77
2022/06/07 01:52:33;;;;;;;10.55;6.30;;;;;;;17.65;80.28;100586.50;4946459;28;20531;-76
2022/06/07 01:55:00;;;;;;;12.85;5.65;;;;;;;17.60;79.40;100559.19;4947507;28;20035;-76
2022/06/07 01:57:27;;;;;;;8.05;5.57;;;;;;;17.28;79.08;100514.97;4936507;28;20039;-77
2022/06/07 01:59:54;;;;;;;6.95;4.80;;;;;;;17.84;79.08;100597.53;4947067;28;20046;-76
2022/06/07 02:02:22;;;;;;;9.13;5.35;;;;;;;17.61;79.05;100576.00;4946524;28;20078;-76
2022/06/07 02:04:48;;;;;;;14.40;6.53;;;;;;;17.72;78.85;100582.78;4945145;28;20435;-77
2022/06/07 02:07:14;;;;;;;13.98;5.70;;;;;;;17.43;77.65;100522.50;4946110;28;20081;-76
2022/06/07 02:09:40;;;;;;;12.02;5.15;;;;;;;17.56;77.59;100562.88;4947369;28;20071;-76
2022/06/07 02:12:05;;;;;;;10.77;6.00;;;;;;;17.41;78.69;100581.81;4935667;28;20031;-76
2022/06/07 02:14:31;;;;;;;11.63;6.25;;;;;;;17.11;78.43;100519.81;4946548;28;20475;-76
2022/06/07 02:17:00;;;;;;;7.30;5.25;;;;;;;17.15;78.15;100505.56;4950006;28;20181;-76
2022/06/07 02:19:25;;;;;;;9.38;5.25;;;;;;;17.31;78.73;100562.63;4947084;28;20047;-75
2022/06/07 02:21:51;;;;;;;8.65;5.30;;;;;;;17.04;79.21;100517.34;4947059;28;20553;-75
2022/06/07 02:24:16;;;;;;;7.00;5.22;;;;;;;17.34;79.95;100583.75;4945875;28;20046;-75
2022/06/07 02:27:01;;;;;;;6.97;4.38;;;;;;;17.12;79.34;100510.97;4946117;28;20067;-75
2022/06/07 02:29:44;;;;;;;7.32;5.70;;;;;;;17.26;78.43;100530.03;4946426;28;20031;-75
2022/06/07 02:32:17;;;;;;;6.70;5.10;;;;;;;17.06;79.50;100518.13;4931913;28;20550;-75
2022/06/07 02:34:46;;;;;;;6.53;4.53;;;;;;;17.42;79.48;100557.03;4945581;28;20045;-75
2022/06/07 02:37:13;;;;;;;7.07;6.03;;;;;;;17.05;79.50;100510.25;4945327;28;20043;-75
2022/06/07 02:39:39;;;;;;;7.78;5.38;;;;;;;17.42;79.08;100557.03;4945289;28;20071;-75
2022/06/07 02:42:10;;;;;;;13.75;6.13;;;;;;;17.66;78.03;100584.72;4948767;28;20074;-75
2022/06/07 02:44:37;;;;;;;7.90;5.50;;;;;;;17.71;77.70;100574.84;4936031;28;20058;-75
2022/06/07 02:47:03;;;;;;;8.60;5.28;;;;;;;17.39;77.69;100533.22;4951422;28;20043;-75
2022/06/07 02:49:29;;;;;;;5.95;4.65;;;;;;;17.18;77.82;100526.69;4933926;28;20035;-75
2022/06/07 02:51:55;;;;;;;9.52;4.93;;;;;;;17.24;77.39;100524.75;4952739;28;20041;-75
2022/06/07 02:54:21;;;;;;;8.43;5.63;;;;;;;17.41;77.32;100539.38;4952216;28;20154;-75
2022/06/07 02:56:47;;;;;;;8.73;4.93;;;;;;;17.70;78.43;100597.88;4949896;28;20038;-75
2022/06/07 02:59:14;;;;;;;8.95;5.43;;;;;;;17.19;77.92;100513.41;4951127;28;20035;-75
2022/06/07 03:01:39;;;;;;;8.95;4.53;;;;;;;17.42;78.52;100563.22;4934772;28;20055;-75
2022/06/07 03:04:05;;;;;;;12.88;5.00;;;;;;;17.16;78.06;100532.06;4933840;28;20118;-75
2022/06/07 03:06:32;;;;;;;10.90;4.72;;;;;;;17.67;77.41;100599.72;4928986;29;20034;-75
2022/06/07 03:08:58;;;;;;;9.35;5.63;;;;;;;17.58;77.36;100597.28;4933166;28;20040;-75
2022/06/07 03:11:25;;;;;;;8.48;5.22;;;;;;;17.22;77.97;100550.44;4945233;28;20069;-75
2022/06/07 03:13:51;;;;;;;7.40;5.10;;;;;;;17.21;78.01;100524.00;4943722;28;20042;-75
2022/06/07 03:16:16;;;;;;;9.25;5.07;;;;;;;17.53;78.91;100576.19;4935811;28;20028;-75
2022/06/07 03:18:42;;;;;;;7.93;5.15;;;;;;;17.28;77.99;100539.69;4933652;28;20487;-75
2022/06/07 03:21:08;;;;;;;6.85;5.18;;;;;;;17.39;76.89;100550.00;4934745;29;20551;-75
2022/06/07 03:23:33;;;;;;;11.05;5.85;;;;;;;17.59;76.63;100572.53;4930433;29;20118;-74
2022/06/07 03:26:17;;;;;;;5.93;4.38;;;;;;;17.36;78.24;100531.53;4928828;29;20095;-75
2022/06/07 03:28:43;;;;;;;8.27;4.95;;;;;;;17.44;78.85;100540.19;4933814;28;20035;-75
2022/06/07 03:31:15;;;;;;;12.88;6.93;;;;;;;17.87;77.49;100609.84;4930198;28;20805;-76
2022/06/07 03:33:44;;;;;;;7.15;4.28;;;;;;;17.72;76.48;100605.75;4933956;29;20047;-77
2022/06/07 03:36:17;;;;;;;9.98;6.30;;;;;;;17.74;76.96;100569.44;4931287;29;20039;-76
2022/06/07 03:38:43;;;;;;;11.55;6.22;;;;;;;17.76;77.28;100590.66;4932786;28;20035;-76
2022/06/07 03:41:14;;;;;;;11.80;5.78;;;;;;;17.92;75.78;100608.78;4932212;29;20138;-75
2022/06/07 03:43:39;;;;;;;7.00;5.07;;;;;;;17.39;75.54;100515.53;4943643;28;20042;-76
2022/06/07 03:46:17;;;;;;;8.98;4.70;;;;;;;17.75;75.09;100565.88;4934578;29;20030;-76
2022/06/07 03:48:44;;;;;;;5.93;4.45;;;;;;;17.41;74.41;100534.94;4934850;28;20502;-76
2022/06/07 03:51:11;;;;;;;6.57;4.72;;;;;;;17.68;74.87;100535.13;4895410;29;20922;-77
2022/06/07 03:53:38;;;;;;;6.88;4.88;;;;;;;17.68;73.94;100570.50;4931820;29;20094;-76
2022/06/07 03:56:05;;;;;;;8.63;5.28;;;;;;;17.48;74.17;100540.94;4930322;29;20027;-76
2022/06/07 03:58:38;;;;;;;7.70;4.18;;;;;;;17.65;72.75;100529.88;4932019;28;20035;-77
2022/06/07 04:01:05;;;;;;;19.95;4.80;;;;;;;17.87;72.08;100533.72;4927771;29;20047;-76
2022/06/07 04:03:31;;;;;;;6.97;4.40;;;;;;;18.32;71.31;100601.50;4946966;28;20511;-76
2022/06/07 04:05:58;;;;;;;9.43;5.68;;;;;;;18.33;71.16;100608.53;4947703;28;20062;-76
2022/06/07 04:08:25;;;;;;;7.47;4.18;;;;;;;17.65;72.22;100533.44;4947664;28;20035;-77
2022/06/07 04:10:54;;;;;;;7.65;4.75;;;;;;;17.54;72.25;100555.84;4949507;28;20039;-76
2022/06/07 04:13:23;;;;;;;6.20;3.58;;;;;;;17.56;72.87;100594.69;4950223;28;20059;-76
2022/06/07 04:15:49;;;;;;;6.90;4.18;;;;;;;17.66;72.50;100574.97;4935339;28;20031;-76
2022/06/07 04:18:15;;;;;;;9.93;4.72;;;;;;;17.62;71.56;100546.75;4946660;28;20035;-76
2022/06/07 04:20:40;;;;;;;5.22;4.60;;;;;;;17.72;70.98;100545.63;4951987;28;20054;-76
2022/06/07 04:23:07;;;;;;;8.02;4.65;;;;;;;17.56;71.28;100541.63;4931130;28;20062;-76
2022/06/07 04:25:35;;;;;;;7.05;4.50;;;;;;;17.48;71.92;100536.50;4947305;28;20141;-76
2022/06/07 04:28:01;;;;;;;5.80;3.58;;;;;;;18.28;70.26;100602.50;4933927;28;20042;-76
2022/06/07 04:30:27;;;;;;;7.15;4.88;;;;;;;17.93;70.29;100540.63;4946639;28;20390;-76
2022/06/07 04:32:52;;;;;;;7.97;4.95;;;;;;;17.81;69.93;100530.38;4945521;28;20023;-76
2022/06/07 04:35:19;;;;;;;6.25;4.15;;;;;;;18.05;69.66;100552.69;4948751;28;20050;-76
2022/06/07 04:37:45;;;;;;;7.80;4.63;;;;;;;18.31;70.61;100600.63;4949161;28;20110;-76
2022/06/07 04:40:13;;;;;;;6.13;4.07;;;;;;;18.35;70.10;100581.03;4944405;28;20039;-75
2022/06/07 04:42:38;;;;;;;7.68;4.38;;;;;;;18.34;69.55;100551.84;4938320;28;20027;-75
2022/06/07 04:45:06;;;;;;;6.20;4.80;;;;;;;18.23;69.92;100553.94;4931223;28;20046;-75
2022/06/07 04:47:33;;;;;;;7.53;4.43;;;;;;;18.60;68.56;100587.41;4947462;28;20135;-75
2022/06/07 04:49:58;;;;;;;6.90;4.93;;;;;;;18.56;67.75;100529.00;4950011;28;20094;-75
2022/06/07 04:52:24;;;;;;;9.23;5.35;;;;;;;18.69;68.81;100584.47;4949544;28;20047;-75
2022/06/07 04:54:49;;;;;;;9.77;8.30;;;;;;;19.04;67.32;100569.22;4947008;28;20098;-75
2022/06/07 04:57:15;;;;;;;6.97;5.18;;;;;;;18.95;67.89;100559.75;4945081;28;20452;-75
2022/06/07 04:59:40;;;;;;;8.88;5.65;;;;;;;19.43;66.17;100582.09;4946496;28;20129;-76
2022/06/07 05:02:06;;;;;;;7.07;4.30;;;;;;;19.44;65.72;100557.25;4941183;28;20063;-75
2022/06/07 05:04:31;;;;;;;6.18;4.85;;;;;;;19.77;65.85;100614.66;4931997;28;20042;-75
2022/06/07 05:06:57;;;;;;;10.07;4.10;;;;;;;19.38;66.27;100560.97;4944588;28;20031;-76
2022/06/07 05:09:24;;;;;;;13.43;4.63;;;;;;;19.92;65.48;100612.38;4932305;28;20097;-75
2022/06/07 05:11:52;;;;;;;12.90;6.95;;;;;;;20.00;64.90;100595.22;4943317;28;20031;-74
2022/06/07 05:14:18;;;;;;;8.15;4.50;;;;;;;20.29;63.59;100593.25;4945860;28;20047;-76
2022/06/07 05:16:44;;;;;;;7.78;4.75;;;;;;;20.48;62.00;100560.59;4948596;28;20070;-75
2022/06/07 05:19:11;;;;;;;13.68;4.90;;;;;;;20.57;62.96;100557.59;4942819;28;20094;-75
2022/06/07 05:21:38;;;;;;;6.38;4.28;;;;;;;20.67;61.20;100574.97;4948013;28;20098;-75
2022/06/07 05:24:04;;;;;;;8.82;3.60;;;;;;;20.74;60.46;100568.44;4945917;28;20038;-76
2022/06/07 05:26:49;;;;;;;8.40;3.97;;;;;;;20.80;60.71;100562.03;4948865;28;20207;-76
2022/06/07 05:29:31;;;;;;;5.63;3.83;;;;;;;21.41;61.21;100641.41;4944221;28;20053;-75
2022/06/07 05:31:59;;;;;;;17.10;7.30;;;;;;;21.20;57.76;100582.59;4940777;28;20031;-75
2022/06/07 05:34:24;;;;;;;12.50;7.68;;;;;;;21.35;57.84;100572.22;4945298;28;20483;-75
2022/06/07 05:36:50;;;;;;;10.85;4.60;;;;;;;22.10;58.54;100658.06;4946183;28;20123;-75
2022/06/07 05:39:20;;;;;;;11.05;4.57;;;;;;;21.64;59.31;100579.91;4945525;28;20102;-75
2022/06/07 05:41:46;;;;;;;7.22;4.65;;;;;;;22.03;58.37;100597.78;4947257;28;20135;-75
2022/06/07 05:44:11;;;;;;;9.82;4.47;;;;;;;22.48;56.22;100668.00;4949215;28;20110;-76
2022/06/07 05:46:37;;;;;;;6.63;4.15;;;;;;;22.12;56.98;100602.72;4944324;28;20039;-77
2022/06/07 05:49:03;;;;;;;22.50;6.20;;;;;;;22.41;56.81;100651.38;4944844;28;20039;-76
2022/06/07 05:51:30;;;;;;;11.85;6.03;;;;;;;21.98;55.71;100538.31;4945347;28;20081;-76
2022/06/07 05:53:56;;;;;;;13.95;7.60;;;;;;;23.26;53.69;100645.59;4933804;28;20464;-75
2022/06/07 05:56:22;;;;;;;13.00;7.03;;;;;;;23.20;51.38;100623.59;4946013;28;20151;-76
2022/06/07 05:58:48;;;;;;;7.22;4.15;;;;;;;23.23;52.68;100623.47;4946477;28;20475;-76
2022/06/07 06:01:16;;;;;;;7.30;4.85;;;;;;;22.91;52.12;100580.38;4951251;28;20046;-76
2022/06/07 06:03:42;;;;;;;9.90;5.40;;;;;;;23.30;51.61;100623.09;4949592;28;20467;-75
2022/06/07 06:06:09;;;;;;;7.68;3.95;;;;;;;22.99;54.20;100630.88;4948076;28;20581;-76
2022/06/07 06:11:21;;;;;;;19.33;7.80;;;;;;;23.12;52.64;100584.69;4949361;28;20046;-76
2022/06/07 06:13:46;;;;;;;10.50;4.32;;;;;;;23.08;50.91;100575.06;4952589;28;20044;-76
2022/06/07 06:16:18;;;;;;;16.20;6.53;;;;;;;23.52;54.13;100630.03;4946731;28;20043;-76
2022/06/07 06:18:50;;;;;;;6.78;3.20;;;;;;;23.21;51.44;100623.53;4950134;28;20586;-75
2022/06/07 06:21:18;;;;;;;7.55;4.18;;;;;;;23.09;50.52;100632.19;4947314;28;20039;-76
2022/06/07 06:23:46;;;;;;;7.28;3.92;;;;;;;22.88;48.93;100561.78;4935693;28;20040;-75
2022/06/07 06:26:14;;;;;;;10.02;4.55;;;;;;;23.01;49.88;100610.25;4948810;28;20023;-76
2022/06/07 06:28:42;;;;;;;7.22;3.95;;;;;;;23.02;51.10;100567.38;4944805;28;20059;-77
2022/06/07 06:31:11;;;;;;;8.43;3.83;;;;;;;23.93;47.00;100627.97;4946829;28;20046;-76
2022/06/07 06:33:38;;;;;;;11.13;5.35;;;;;;;23.18;46.23;100565.66;4919776;28;20504;-76
2022/06/07 06:36:04;;;;;;;7.63;3.88;;;;;;;23.34;46.47;100626.47;4948880;28;20046;-75
2022/06/07 06:38:34;;;;;;;7.35;4.05;;;;;;;22.54;47.56;100550.03;4946113;28;20121;-75
2022/06/07 06:41:26;;;;;;;13.68;3.60;;;;;;;23.22;48.23;100603.84;4949213;28;20034;-74
2022/06/07 06:43:53;;;;;;;17.88;4.18;;;;;;;22.86;47.56;100566.34;4948890;28;20062;-75
2022/06/07 06:46:20;;;;;;;4.93;3.72;;;;;;;22.75;47.60;100557.00;4951416;28;20082;-76
2022/06/07 06:48:47;;;;;;;12.00;5.97;;;;;;;23.23;47.12;100599.38;4949690;28;20028;-75
2022/06/07 06:51:18;;;;;;;10.95;3.63;;;;;;;22.89;47.07;100547.47;4952561;28;20035;-75
2022/06/07 06:53:44;;;;;;;7.10;3.33;;;;;;;23.21;47.68;100614.66;4951399;28;20498;-76
2022/06/07 06:56:16;;;;;;;6.45;2.40;;;;;;;23.36;50.13;100611.19;4937358;28;20081;-76
2022/06/07 06:58:42;;;;;;;3.78;2.20;;;;;;;23.52;47.87;100601.44;4951572;28;20360;-76
2022/06/07 07:01:14;;;;;;;12.65;2.85;;;;;;;23.53;48.12;100611.22;4950522;28;20484;-75
2022/06/07 07:03:41;;;;;;;6.40;2.65;;;;;;;23.30;48.59;100599.00;4945945;28;20054;-76
2022/06/07 07:06:10;;;;;;;2.97;2.13;;;;;;;23.48;48.11;100612.38;4945704;28;20039;-77
2022/06/07 07:08:38;;;;;;;7.63;2.80;;;;;;;23.33;49.83;100598.81;4953741;28;20522;-76
2022/06/07 07:11:11;;;;;;;4.80;2.75;;;;;;;23.32;49.40;100605.13;4947495;28;20039;-77
2022/06/07 07:13:37;;;;;;;4.85;2.15;;;;;;;23.42;48.92;100593.97;4933423;28;20381;-77
2022/06/07 07:16:07;;;;;;;4.40;2.28;;;;;;;23.46;49.24;100606.22;4935178;28;20402;-76
2022/06/07 07:18:33;;;;;;;4.40;2.53;;;;;;;23.98;49.59;100592.88;4947872;28;20050;-76
2022/06/07 07:21:06;;;;;;;5.10;2.83;;;;;;;23.51;48.89;100593.50;4945227;28;20031;-76
2022/06/07 07:23:32;;;;;;;7.30;3.08;;;;;;;23.69;48.82;100602.38;4948258;28;20525;-76
2022/06/07 07:26:06;;;;;;;2.95;2.30;;;;;;;23.69;49.27;100595.22;4949498;28;20105;-75
2022/06/07 07:28:36;;;;;;;6.38;2.78;;;;;;;23.99;47.86;100598.13;4941099;28;20439;-75
2022/06/07 07:31:04;;;;;;;4.13;2.30;;;;;;;24.05;47.17;100606.81;4934327;28;20043;-76
2022/06/07 07:33:30;;;;;;;3.38;2.13;;;;;;;23.80;46.88;100594.69;4948766;28;20478;-76
2022/06/07 07:35:56;;;;;;;4.97;2.55;;;;;;;23.89;46.45;100585.31;4942514;28;20113;-76
2022/06/07 07:38:23;;;;;;;4.85;2.90;;;;;;;23.85;45.71;100586.41;4947054;28;20035;-76
2022/06/07 07:40:49;;;;;;;3.03;2.13;;;;;;;23.75;46.43;100594.06;4946184;28;20039;-76
2022/06/07 07:43:16;;;;;;;9.30;2.85;;;;;;;23.92;46.05;100583.31;4947232;28;20037;-77
2022/06/07 07:45:41;;;;;;;5.50;2.88;;;;;;;24.12;46.27;100586.78;4943503;28;20066;-77
2022/06/07 07:48:08;;;;;;;3.35;2.35;;;;;;;24.38;45.41;100583.53;4943481;28;20110;-77
2022/06/07 07:50:34;;;;;;;11.02;3.35;;;;;;;24.42;46.36;100589.63;4947482;28;20038;-75
2022/06/07 07:53:00;;;;;;;3.65;2.47;;;;;;;24.39;45.19;100584.41;4941533;28;20079;-75
2022/06/07 07:55:26;;;;;;;2.67;2.00;;;;;;;24.60;45.79;100587.75;4947016;28;20047;-75
2022/06/07 07:57:51;;;;;;;3.35;2.28;;;;;;;24.29;46.30;100584.03;4929577;28;20062;-76
2022/06/07 08:00:17;;;;;;;5.28;2.38;;;;;;;24.44;45.70;100576.94;4947742;28;20047;-75
2022/06/07 08:02:55;;;;;;;5.85;3.85;;;;;;;24.30;47.69;100583.06;4943678;28;20417;-90
2022/06/07 08:05:21;;;;;;;6.45;3.33;;;;;;;24.43;47.59;100572.56;4938021;28;20055;-83
2022/06/07 08:07:48;;;;;;;2.65;1.95;;;;;;;24.27;48.72;100569.84;4950318;28;20046;-84
2022/06/07 08:10:14;;;;;;;5.35;2.58;;;;;;;24.59;50.05;100573.47;4949295;28;20065;-84
2022/06/07 08:12:39;;;;;;;4.82;3.28;;;;;;;24.78;48.74;100583.19;4933860;28;20235;-84
2022/06/07 08:15:06;;;;;;;5.72;3.03;;;;;;;24.43;49.88;100562.69;4954057;28;20093;-85
2022/06/07 08:17:32;;;;;;;4.78;3.08;;;;;;;24.97;52.79;100564.19;4937670;28;20082;-89
2022/06/07 08:19:57;;;;;;;5.75;2.28;;;;;;;24.96;47.21;100563.34;4950623;28;20086;-86
2022/06/07 08:22:23;;;;;;;3.40;2.30;;;;;;;24.56;45.77;100564.72;4949775;28;20494;-89
2022/06/07 08:24:49;;;;;;;4.65;2.55;;;;;;;24.82;49.12;100585.59;4950531;28;20046;-88
2022/06/07 08:27:15;;;;;;;7.00;2.25;;;;;;;24.48;43.97;100564.28;4948311;28;20043;-86
2022/06/07 08:29:41;;;;;;;9.32;2.05;;;;;;;24.54;47.96;100577.38;4955021;28;20728;-83
2022/06/07 08:32:08;;;;;;;3.13;2.03;;;;;;;24.61;46.27;100560.84;4948235;28;20563;-84
2022/06/07 08:37:34;;;;;;;4.88;2.47;;;;;;;25.26;44.67;100560.72;4946368;28;20582;-85
2022/06/07 08:40:01;;;;;;;3.33;1.98;;;;;;;24.94;46.20;100556.31;4953515;28;20439;-89
2022/06/07 08:42:34;;;;;;;4.07;2.53;;;;;;;25.16;48.99;100547.88;4954348;28;20034;-88
2022/06/07 08:45:23;;;;;;;4.15;2.10;;;;;;;25.17;48.94;100536.16;4962514;28;20549;-89
2022/06/07 08:48:06;;;;;;;6.47;2.60;;;;;;;25.60;46.27;100529.13;4954788;28;20042;-84
2022/06/07 08:50:38;;;;;;;;;;;;;;;25.34;44.39;100535.22;4953777;28;20047;-87
2022/06/07 08:53:18;;;;;;;3.03;2.28;;;;;;;25.27;45.12;100527.50;4950936;28;19914;-85
2022/06/07 08:55:53;;;;;;;3.42;1.80;;;;;;;25.52;41.68;100535.91;4956753;28;20035;-83
2022/06/07 08:58:37;;;;;;;4.32;2.08;;;;;;;26.25;40.55;100528.72;4948995;28;20046;-83
2022/06/07 09:01:24;;;;;;;2.97;2.38;;;;;;;26.39;40.80;100533.22;4949368;28;20042;-84
2022/06/07 09:04:40;;;;;;;2.38;1.50;;;;;;;25.66;39.73;100547.56;4960409;28;20060;-84
2022/06/07 09:07:16;;;;;;;3.20;1.92;;;;;;;25.95;44.78;100519.88;4911628;29;20066;-85
2022/06/07 09:13:06;;;;;;;3.67;1.95;;;;;;;25.11;42.80;100529.34;4954535;28;20776;-85
2022/06/07 09:15:34;;;;;;;3.63;1.88;;;;;;;24.94;42.30;100524.97;4962613;28;20028;-86
2022/06/07 09:18:02;;;;;;;3.40;1.75;;;;;;;25.28;39.29;100531.06;4965970;28;20031;-86
2022/06/07 09:20:33;;;;;;;7.40;1.60;;;;;;;25.50;42.07;100527.97;4959231;28;20042;-84
2022/06/07 09:23:11;;;;;;;1.83;1.25;;;;;;;25.81;37.00;100518.03;4954687;28;20041;-87
2022/06/07 09:25:48;;;;;;;1.70;1.00;;;;;;;26.22;40.98;100518.16;4966695;28;20043;-85
2022/06/07 09:28:26;;;;;;;3.95;2.15;;;;;;;26.18;37.90;100518.44;4949758;28;20036;-85
2022/06/07 09:31:10;;;;;;;4.03;1.20;;;;;;;25.93;35.31;100516.44;4946720;28;20070;-87
2022/06/07 09:33:49;;;;;;;2.35;1.30;;;;;;;26.33;36.51;100504.00;4949756;28;20043;-84
2022/06/07 09:36:21;;;;;;;6.90;4.10;;;;;;;27.26;36.21;100506.91;4946591;28;20085;-83
2022/06/07 09:38:52;;;;;;;2.30;1.33;;;;;;;27.28;35.94;100496.91;4958656;28;20035;-87
2022/06/07 09:41:39;;;;;;;7.15;1.77;;;;;;;27.79;36.26;100513.09;4958815;28;20063;-85
2022/06/07 09:44:15;;;;;;;2.30;1.58;;;;;;;25.55;38.79;100487.38;4953241;28;20121;-87
2022/06/07 09:46:49;;;;;;;3.30;1.40;;;;;;;25.70;38.56;100499.84;4958422;28;20049;-88
2022/06/07 09:49:34;;;;;;;5.93;1.85;;;;;;;25.03;39.42;100492.22;4958775;28;20035;-87
2022/06/07 09:52:25;;;;;;;1.60;1.20;;;;;;;24.90;37.92;100491.19;4961292;28;20178;-87
2022/06/07 09:55:23;;;;;;;2.15;1.55;;;;;;;24.75;39.33;100492.09;4943863;28;20047;-84
2022/06/07 09:58:00;;;;;;;2.55;1.67;;;;;;;25.11;38.92;100496.25;4950359;28;20142;-84
2022/06/07 10:00:54;;;;;;;3.03;1.48;;;;;;;26.63;37.62;100493.09;4953939;28;20039;-85
2022/06/07 10:03:52;;;;;;;9.77;1.30;;;;;;;24.95;38.78;100499.84;4950886;28;20057;-86
2022/06/07 10:06:56;;;;;;;11.40;1.83;;;;;;;24.55;39.39;100490.56;4946736;28;20112;-88
2022/06/07 10:09:52;;;;;;;4.00;1.70;;;;;;;24.45;39.87;100490.19;4965194;28;20054;-87
2022/06/07 10:12:17;;;;;;;2.65;1.45;;;;;;;24.70;40.25;100483.44;4957484;28;20113;-86
2022/06/07 10:14:56;;;;;;;5.35;2.03;;;;;;;25.59;39.55;100481.72;4962762;28;20055;-87
2022/06/07 10:17:21;;;;;;;5.88;1.83;;;;;;;26.09;41.36;100485.78;4969188;28;20093;-87
2022/06/07 10:20:03;;;;;;;2.70;1.88;;;;;;;26.15;39.17;100472.88;4951344;28;20622;-87
2022/06/07 10:23:02;;;;;;;2.85;1.77;;;;;;;25.81;43.99;100478.56;4971148;28;20065;-87
2022/06/07 10:25:38;;;;;;;2.58;1.67;;;;;;;25.22;45.86;100467.84;4980487;28;20254;-88
2022/06/07 10:28:15;;;;;;;4.22;1.73;;;;;;;25.06;42.76;100473.22;4964746;28;20038;-84
2022/06/07 10:30:47;;;;;;;5.57;1.90;;;;;;;25.01;41.42;100472.63;4950084;28;20133;-89
2022/06/07 10:33:50;;;;;;;4.05;2.00;;;;;;;24.64;42.21;100472.09;4953295;28;20058;-83
2022/06/07 10:36:40;;;;;;;3.00;1.55;;;;;;;24.38;40.63;100480.75;4953265;28;20042;-87
2022/06/07 10:39:38;;;;;;;3.95;2.15;;;;;;;25.70;39.48;100465.78;4957430;28;20115;-89
2022/06/07 10:42:22;;;;;;;5.68;1.55;;;;;;;25.95;37.54;100466.09;4954869;28;20046;-91
2022/06/07 10:45:00;;;;;;;2.25;1.40;;;;;;;25.06;39.03;100470.53;4951095;28;20555;-87
2022/06/07 10:47:49;;;;;;;4.85;1.40;;;;;;;24.93;39.60;100453.41;4964489;28;20035;-86
2022/06/07 10:50:54;;;;;;;1.83;1.38;;;;;;;24.74;36.36;100468.88;4950451;28;20097;-85
2022/06/07 10:53:35;;;;;;;4.95;1.52;;;;;;;24.77;37.25;100445.44;4958242;28;20039;-88
2022/06/07 10:56:16;;;;;;;6.78;1.63;;;;;;;25.42;38.01;100449.63;4943589;28;20414;-90
2022/06/07 10:58:48;;;;;;;4.05;3.00;;;;;;;25.51;36.96;100459.81;4948970;28;20066;-88
2022/06/07 11:01:27;;;;;;;2.60;1.50;;;;;;;24.93;39.46;100457.94;4957199;28;20073;-89
2022/06/07 11:04:09;;;;;;;7.72;2.55;;;;;;;25.29;44.68;100452.22;4949542;28;20416;-89
2022/06/07 11:09:42;;;;;;;5.63;1.77;;;;;;;24.74;41.45;100450.09;4959871;28;20601;-92
2022/06/07 11:12:17;;;;;;;3.38;1.67;;;;;;;24.96;41.39;100444.31;4961234;28;20482;-91
2022/06/07 11:14:52;;;;;;;3.38;2.05;;;;;;;25.04;42.69;100437.53;4951435;28;20139;-91
2022/06/07 11:17:36;;;;;;;3.35;1.95;;;;;;;25.22;41.66;100440.13;4955067;28;20614;-90
2022/06/07 11:20:21;;;;;;;6.35;2.17;;;;;;;25.40;41.36;100455.13;4953774;28;20039;-90
2022/06/07 11:23:10;;;;;;;5.03;2.58;;;;;;;25.33;42.68;100451.06;4948822;28;20039;-87
2022/06/07 11:25:41;;;;;;;4.55;2.08;;;;;;;24.98;42.23;100448.66;4950000;28;20070;-92
2022/06/07 11:28:21;;;;;;;5.47;2.38;;;;;;;24.64;42.13;100437.22;4949715;28;20117;-91
2022/06/07 11:30:52;;;;;;;3.97;2.10;;;;;;;24.89;42.20;100429.53;4961503;28;20550;-89
2022/06/07 11:33:48;;;;;;;9.45;1.73;;;;;;;24.96;40.83;100447.00;4950310;28;20031;-90
2022/06/07 11:36:13;;;;;;;3.90;1.80;;;;;;;25.25;40.60;100442.63;4931705;28;20051;-91
2022/06/07 11:38:57;;;;;;;5.03;1.70;;;;;;;24.66;40.78;100441.66;4955713;28;20042;-92
2022/06/07 11:41:37;;;;;;;3.55;1.90;;;;;;;25.03;42.42;100434.97;4968247;28;20038;-92
2022/06/07 11:44:10;;;;;;;6.68;1.60;;;;;;;24.56;40.48;100427.88;4968027;28;20034;-92
2022/06/07 11:46:35;;;;;;;3.25;2.05;;;;;;;24.76;40.19;100432.09;4967117;28;20805;-90
2022/06/07 11:49:26;;;;;;;7.68;2.45;;;;;;;25.15;40.85;100428.84;4966405;28;20023;-90
2022/06/07 11:51:57;;;;;;;2.60;1.48;;;;;;;25.03;41.02;100432.28;4964938;28;20394;-91
2022/06/07 11:54:28;;;;;;;5.72;2.72;;;;;;;24.91;40.98;100427.63;4967685;28;20031;-91
2022/06/07 11:56:57;;;;;;;6.75;1.98;;;;;;;25.22;40.30;100422.19;4944421;28;20084;-89
2022/06/07 11:59:31;;;;;;;2.72;1.58;;;;;;;25.19;41.44;100416.13;4952484;28;20147;-90